sensor_id;sensor_type;location;lat;lon;timestamp;pressure;altitude;pressure_sealevel;temperature;humidity
77572;BME280;67214;47.454;18.966;2024-02-26T00:02:16;99389.13;;;9.09;100.00
77572;BME280;67214;47.454;18.966;2024-02-26T00:04:42;99395.22;;;9.09;100.00
77572;BME280;67214;47.454;18.966;2024-02-26T00:07:09;99391.05;;;9.07;100.00
77572;BME280;67214;47.454;18.966;2024-02-26T00:09:36;99379.14;;;9.07;100.00
77572;BME280;67214;47.454;18.966;2024-02-26T00:12:03;99389.24;;;9.07;100.00
77572;BME280;67214;47.454;18.966;2024-02-26T00:14:30;99394.53;;;9.07;100.00
77572;BME280;67214;47.454;18.966;2024-02-26T00:16:57;99392.01;;;9.06;100.00
77572;BME280;67214;47.454;18.966;2024-02-26T00:19:24;99379.14;;;9.07;100.00
77572;BME280;67214;47.454;18.966;2024-02-26T00:21:50;99379.75;;;9.05;100.00
77572;BME280;67214;47.454;18.966;2024-02-26T00:24:19;99381.43;;;9.06;100.00
77572;BME280;67214;47.454;18.966;2024-02-26T00:26:46;99380.73;;;9.04;100.00
77572;BME280;67214;47.454;18.966;2024-02-26T00:29:14;99381.22;;;9.03;100.00
77572;BME280;67214;47.454;18.966;2024-02-26T00:31:41;99389.91;;;9.00;100.00
77572;BME280;67214;47.454;18.966;2024-02-26T00:34:07;99377.53;;;9.00;100.00
77572;BME280;67214;47.454;18.966;2024-02-26T00:36:34;99381.34;;;9.02;100.00
77572;BME280;67214;47.454;18.966;2024-02-26T00:39:01;99383.78;;;8.99;100.00
77572;BME280;67214;47.454;18.966;2024-02-26T00:41:29;99381.73;;;8.97;100.00
77572;BME280;67214;47.454;18.966;2024-02-26T00:43:56;99386.18;;;8.97;100.00
77572;BME280;67214;47.454;18.966;2024-02-26T00:46:22;99365.54;;;8.96;100.00
77572;BME280;67214;47.454;18.966;2024-02-26T00:48:49;99376.12;;;8.96;100.00
77572;BME280;67214;47.454;18.966;2024-02-26T00:51:16;99373.03;;;8.91;100.00
77572;BME280;67214;47.454;18.966;2024-02-26T00:53:42;99365.69;;;8.89;100.00
77572;BME280;67214;47.454;18.966;2024-02-26T00:56:09;99368.81;;;8.88;100.00
77572;BME280;67214;47.454;18.966;2024-02-26T00:58:36;99362.72;;;8.88;100.00
77572;BME280;67214;47.454;18.966;2024-02-26T01:01:03;99363.20;;;8.88;100.00
77572;BME280;67214;47.454;18.966;2024-02-26T01:03:30;99357.83;;;8.83;100.00
77572;BME280;67214;47.454;18.966;2024-02-26T01:05:56;99361.44;;;8.82;100.00
77572;BME280;67214;47.454;18.966;2024-02-26T01:08:23;99357.11;;;8.81;100.00
77572;BME280;67214;47.454;18.966;2024-02-26T01:10:50;99360.02;;;8.78;100.00
77572;BME280;67214;47.454;18.966;2024-02-26T01:13:16;99344.64;;;8.78;100.00
77572;BME280;67214;47.454;18.966;2024-02-26T01:15:43;99349.45;;;8.78;100.00
77572;BME280;67214;47.454;18.966;2024-02-26T01:18:10;99350.29;;;8.79;100.00
77572;BME280;67214;47.454;18.966;2024-02-26T01:20:37;99348.81;;;8.80;100.00
77572;BME280;67214;47.454;18.966;2024-02-26T01:23:03;99346.53;;;8.81;100.00
77572;BME280;67214;47.454;18.966;2024-02-26T01:25:30;99340.28;;;8.82;100.00
77572;BME280;67214;47.454;18.966;2024-02-26T01:27:57;99345.78;;;8.85;100.00
77572;BME280;67214;47.454;18.966;2024-02-26T01:30:23;99335.84;;;8.83;100.00
77572;BME280;67214;47.454;18.966;2024-02-26T01:32:50;99336.67;;;8.83;100.00
77572;BME280;67214;47.454;18.966;2024-02-26T01:35:17;99338.33;;;8.84;100.00
77572;BME280;67214;47.454;18.966;2024-02-26T01:37:44;99335.69;;;8.84;100.00
77572;BME280;67214;47.454;18.966;2024-02-26T01:40:12;99336.20;;;8.84;100.00
77572;BME280;67214;47.454;18.966;2024-02-26T01:42:40;99333.13;;;8.88;100.00
77572;BME280;67214;47.454;18.966;2024-02-26T01:45:09;99329.80;;;8.86;100.00
77572;BME280;67214;47.454;18.966;2024-02-26T01:47:36;99330.06;;;8.83;100.00
77572;BME280;67214;47.454;18.966;2024-02-26T01:50:02;99332.34;;;8.82;100.00
77572;BME280;67214;47.454;18.966;2024-02-26T01:52:29;99329.80;;;8.86;100.00
77572;BME280;67214;47.454;18.966;2024-02-26T01:54:56;99323.78;;;8.84;100.00
77572;BME280;67214;47.454;18.966;2024-02-26T01:57:23;99328.02;;;8.81;100.00
77572;BME280;67214;47.454;18.966;2024-02-26T01:59:50;99319.73;;;8.80;100.00
77572;BME280;67214;47.454;18.966;2024-02-26T02:02:16;99325.30;;;8.77;100.00
77572;BME280;67214;47.454;18.966;2024-02-26T02:04:43;99327.94;;;8.77;100.00
77572;BME280;67214;47.454;18.966;2024-02-26T02:07:10;99328.33;;;8.73;100.00
77572;BME280;67214;47.454;18.966;2024-02-26T02:09:36;99331.13;;;8.71;100.00
77572;BME280;67214;47.454;18.966;2024-02-26T02:12:04;99327.91;;;8.68;100.00
77572;BME280;67214;47.454;18.966;2024-02-26T02:14:31;99320.79;;;8.68;100.00
77572;BME280;67214;47.454;18.966;2024-02-26T02:16:57;99330.20;;;8.67;100.00
77572;BME280;67214;47.454;18.966;2024-02-26T02:19:24;99325.18;;;8.64;100.00
77572;BME280;67214;47.454;18.966;2024-02-26T02:21:51;99332.11;;;8.65;100.00
77572;BME280;67214;47.454;18.966;2024-02-26T02:24:17;99328.63;;;8.64;100.00
77572;BME280;67214;47.454;18.966;2024-02-26T02:26:44;99337.55;;;8.63;100.00
77572;BME280;67214;47.454;18.966;2024-02-26T02:29:11;99326.98;;;8.63;100.00
77572;BME280;67214;47.454;18.966;2024-02-26T02:31:39;99332.75;;;8.63;100.00
77572;BME280;67214;47.454;18.966;2024-02-26T02:34:06;99330.22;;;8.61;100.00
77572;BME280;67214;47.454;18.966;2024-02-26T02:36:32;99335.78;;;8.58;100.00
77572;BME280;67214;47.454;18.966;2024-02-26T02:38:59;99337.13;;;8.53;100.00
77572;BME280;67214;47.454;18.966;2024-02-26T02:41:26;99344.84;;;8.50;100.00
77572;BME280;67214;47.454;18.966;2024-02-26T02:43:54;99340.52;;;8.49;100.00
77572;BME280;67214;47.454;18.966;2024-02-26T02:46:21;99335.12;;;8.51;100.00
77572;BME280;67214;47.454;18.966;2024-02-26T02:48:47;99331.99;;;8.51;100.00
77572;BME280;67214;47.454;18.966;2024-02-26T02:51:14;99329.68;;;8.52;100.00
77572;BME280;67214;47.454;18.966;2024-02-26T02:53:41;99330.05;;;8.53;100.00
77572;BME280;67214;47.454;18.966;2024-02-26T02:56:07;99333.05;;;8.54;100.00
77572;BME280;67214;47.454;18.966;2024-02-26T02:58:34;99326.92;;;8.54;100.00
77572;BME280;67214;47.454;18.966;2024-02-26T03:01:01;99329.56;;;8.54;100.00
77572;BME280;67214;47.454;18.966;2024-02-26T03:03:28;99325.23;;;8.53;100.00
77572;BME280;67214;47.454;18.966;2024-02-26T03:05:54;99325.39;;;8.51;100.00
77572;BME280;67214;47.454;18.966;2024-02-26T03:08:21;99320.22;;;8.50;100.00
77572;BME280;67214;47.454;18.966;2024-02-26T03:10:49;99323.50;;;8.48;100.00
77572;BME280;67214;47.454;18.966;2024-02-26T03:13:16;99321.93;;;8.45;100.00
77572;BME280;67214;47.454;18.966;2024-02-26T03:15:42;99329.50;;;8.44;100.00
77572;BME280;67214;47.454;18.966;2024-02-26T03:18:09;99330.34;;;8.45;100.00
77572;BME280;67214;47.454;18.966;2024-02-26T03:20:36;99328.54;;;8.45;100.00
77572;BME280;67214;47.454;18.966;2024-02-26T03:23:03;99320.88;;;8.42;100.00
77572;BME280;67214;47.454;18.966;2024-02-26T03:25:29;99327.84;;;8.43;100.00
77572;BME280;67214;47.454;18.966;2024-02-26T03:27:56;99311.63;;;8.42;100.00
77572;BME280;67214;47.454;18.966;2024-02-26T03:30:23;99313.44;;;8.42;100.00
77572;BME280;67214;47.454;18.966;2024-02-26T03:32:49;99328.80;;;8.42;100.00
77572;BME280;67214;47.454;18.966;2024-02-26T03:35:16;99317.03;;;8.40;100.00
77572;BME280;67214;47.454;18.966;2024-02-26T03:37:43;99311.75;;;8.40;100.00
77572;BME280;67214;47.454;18.966;2024-02-26T03:40:10;99314.87;;;8.40;100.00
77572;BME280;67214;47.454;18.966;2024-02-26T03:42:38;99309.59;;;8.40;100.00
77572;BME280;67214;47.454;18.966;2024-02-26T03:45:05;99311.18;;;8.37;100.00
77572;BME280;67214;47.454;18.966;2024-02-26T03:47:32;99310.81;;;8.36;100.00
77572;BME280;67214;47.454;18.966;2024-02-26T03:49:59;99299.77;;;8.36;100.00
77572;BME280;67214;47.454;18.966;2024-02-26T03:52:26;99304.84;;;8.34;100.00
77572;BME280;67214;47.454;18.966;2024-02-26T03:54:52;99294.75;;;8.33;100.00
77572;BME280;67214;47.454;18.966;2024-02-26T03:57:19;99301.75;;;8.29;100.00
77572;BME280;67214;47.454;18.966;2024-02-26T03:59:46;99311.83;;;8.24;100.00
77572;BME280;67214;47.454;18.966;2024-02-26T04:02:12;99310.98;;;8.23;100.00
77572;BME280;67214;47.454;18.966;2024-02-26T04:04:39;99317.47;;;8.25;100.00
77572;BME280;67214;47.454;18.966;2024-02-26T04:07:06;99308.11;;;8.26;100.00
77572;BME280;67214;47.454;18.966;2024-02-26T04:09:33;99303.16;;;8.27;100.00
77572;BME280;67214;47.454;18.966;2024-02-26T04:12:00;99301.83;;;8.27;100.00
77572;BME280;67214;47.454;18.966;2024-02-26T04:14:26;99301.02;;;8.27;100.00
77572;BME280;67214;47.454;18.966;2024-02-26T04:16:53;99299.70;;;8.27;100.00
77572;BME280;67214;47.454;18.966;2024-02-26T04:19:20;99309.91;;;8.26;100.00
77572;BME280;67214;47.454;18.966;2024-02-26T04:21:46;99299.70;;;8.27;100.00
77572;BME280;67214;47.454;18.966;2024-02-26T04:24:13;99293.82;;;8.29;100.00
77572;BME280;67214;47.454;18.966;2024-02-26T04:26:40;99299.55;;;8.28;100.00
77572;BME280;67214;47.454;18.966;2024-02-26T04:29:07;99294.13;;;8.35;100.00
77572;BME280;67214;47.454;18.966;2024-02-26T04:31:33;99296.05;;;8.39;100.00
77572;BME280;67214;47.454;18.966;2024-02-26T04:34:00;99297.01;;;8.38;100.00
77572;BME280;67214;47.454;18.966;2024-02-26T04:36:27;99301.93;;;8.37;100.00
77572;BME280;67214;47.454;18.966;2024-02-26T04:38:53;99303.88;;;8.35;100.00
77572;BME280;67214;47.454;18.966;2024-02-26T04:41:21;99308.66;;;8.35;100.00
77572;BME280;67214;47.454;18.966;2024-02-26T04:43:48;99314.78;;;8.36;100.00
77572;BME280;67214;47.454;18.966;2024-02-26T04:46:14;99301.55;;;8.42;100.00
77572;BME280;67214;47.454;18.966;2024-02-26T04:48:41;99286.65;;;8.40;100.00
77572;BME280;67214;47.454;18.966;2024-02-26T04:51:08;99286.05;;;8.43;100.00
77572;BME280;67214;47.454;18.966;2024-02-26T04:53:35;99283.05;;;8.42;100.00
77572;BME280;67214;47.454;18.966;2024-02-26T04:56:02;99284.28;;;8.37;100.00
77572;BME280;67214;47.454;18.966;2024-02-26T04:58:28;99283.08;;;8.36;100.00
77572;BME280;67214;47.454;18.966;2024-02-26T05:00:55;99296.19;;;8.32;100.00
77572;BME280;67214;47.454;18.966;2024-02-26T05:03:22;99284.66;;;8.27;100.00
77572;BME280;67214;47.454;18.966;2024-02-26T05:05:48;99289.25;;;8.25;100.00
77572;BME280;67214;47.454;18.966;2024-02-26T05:08:15;99283.97;;;8.25;100.00
77572;BME280;67214;47.454;18.966;2024-02-26T05:10:42;99288.30;;;8.26;100.00
77572;BME280;67214;47.454;18.966;2024-02-26T05:13:09;99283.61;;;8.24;100.00
77572;BME280;67214;47.454;18.966;2024-02-26T05:15:36;99293.72;;;8.19;100.00
77572;BME280;67214;47.454;18.966;2024-02-26T05:18:02;99289.85;;;8.23;100.00
77572;BME280;67214;47.454;18.966;2024-02-26T05:20:29;99290.27;;;8.19;100.00
77572;BME280;67214;47.454;18.966;2024-02-26T05:22:57;99281.50;;;8.18;100.00
77572;BME280;67214;47.454;18.966;2024-02-26T05:25:24;99289.76;;;8.19;100.00
77572;BME280;67214;47.454;18.966;2024-02-26T05:27:51;99287.72;;;8.23;100.00
77572;BME280;67214;47.454;18.966;2024-02-26T05:30:18;99290.94;;;8.26;100.00
77572;BME280;67214;47.454;18.966;2024-02-26T05:32:45;99292.26;;;8.26;100.00
77572;BME280;67214;47.454;18.966;2024-02-26T05:35:11;99290.88;;;8.37;100.00
77572;BME280;67214;47.454;18.966;2024-02-26T05:37:38;99287.77;;;8.38;100.00
77572;BME280;67214;47.454;18.966;2024-02-26T05:40:05;99283.56;;;8.35;100.00
77572;BME280;67214;47.454;18.966;2024-02-26T05:42:32;99287.77;;;8.38;100.00
77572;BME280;67214;47.454;18.966;2024-02-26T05:44:59;99275.88;;;8.38;100.00
77572;BME280;67214;47.454;18.966;2024-02-26T05:47:27;99277.89;;;8.40;100.00
77572;BME280;67214;47.454;18.966;2024-02-26T05:49:54;99275.96;;;8.42;100.00
77572;BME280;67214;47.454;18.966;2024-02-26T05:52:22;99275.96;;;8.42;100.00
77572;BME280;67214;47.454;18.966;2024-02-26T05:54:49;99280.61;;;8.44;100.00
77572;BME280;67214;47.454;18.966;2024-02-26T05:57:16;99288.91;;;8.45;100.00
77572;BME280;67214;47.454;18.966;2024-02-26T05:59:44;99281.81;;;8.46;100.00
77572;BME280;67214;47.454;18.966;2024-02-26T06:02:11;99288.91;;;8.45;100.00
77572;BME280;67214;47.454;18.966;2024-02-26T06:04:37;99294.19;;;8.45;100.00
77572;BME280;67214;47.454;18.966;2024-02-26T06:07:04;99295.60;;;8.49;100.00
77572;BME280;67214;47.454;18.966;2024-02-26T06:09:32;99300.77;;;8.51;100.00
77572;BME280;67214;47.454;18.966;2024-02-26T06:11:59;99300.97;;;8.53;100.00
77572;BME280;67214;47.454;18.966;2024-02-26T06:14:25;99300.22;;;8.57;100.00
77572;BME280;67214;47.454;18.966;2024-02-26T06:16:52;99303.95;;;8.60;100.00
77572;BME280;67214;47.454;18.966;2024-02-26T06:19:19;99315.92;;;8.64;100.00
77572;BME280;67214;47.454;18.966;2024-02-26T06:21:46;99316.83;;;8.68;100.00
77572;BME280;67214;47.454;18.966;2024-02-26T06:24:12;99319.23;;;8.71;100.00
77572;BME280;67214;47.454;18.966;2024-02-26T06:26:39;99313.39;;;8.77;100.00
77572;BME280;67214;47.454;18.966;2024-02-26T06:29:06;99307.72;;;8.82;100.00
77572;BME280;67214;47.454;18.966;2024-02-26T06:31:33;99316.97;;;8.82;100.00
77572;BME280;67214;47.454;18.966;2024-02-26T06:33:59;99309.75;;;8.84;100.00
77572;BME280;67214;47.454;18.966;2024-02-26T06:36:26;99317.89;;;8.86;100.00
77572;BME280;67214;47.454;18.966;2024-02-26T06:38:53;99318.46;;;8.90;100.00
77572;BME280;67214;47.454;18.966;2024-02-26T06:41:20;99312.66;;;8.96;100.00
77572;BME280;67214;47.454;18.966;2024-02-26T06:43:46;99314.38;;;9.01;100.00
77572;BME280;67214;47.454;18.966;2024-02-26T06:46:14;99303.89;;;9.05;100.00
77572;BME280;67214;47.454;18.966;2024-02-26T06:48:41;99304.33;;;9.10;100.00
77572;BME280;67214;47.454;18.966;2024-02-26T06:51:07;99310.42;;;9.16;100.00
77572;BME280;67214;47.454;18.966;2024-02-26T06:53:34;99314.19;;;9.23;100.00
77572;BME280;67214;47.454;18.966;2024-02-26T06:56:01;99316.55;;;9.26;100.00
77572;BME280;67214;47.454;18.966;2024-02-26T06:58:27;99319.43;;;9.29;100.00
77572;BME280;67214;47.454;18.966;2024-02-26T07:00:54;99321.52;;;9.35;100.00
77572;BME280;67214;47.454;18.966;2024-02-26T07:03:21;99323.76;;;9.40;100.00
77572;BME280;67214;47.454;18.966;2024-02-26T07:05:49;99330.66;;;9.46;100.00
77572;BME280;67214;47.454;18.966;2024-02-26T07:08:16;99319.66;;;9.51;100.00
77572;BME280;67214;47.454;18.966;2024-02-26T07:10:43;99311.36;;;9.50;100.00
77572;BME280;67214;47.454;18.966;2024-02-26T07:13:09;99317.16;;;9.59;100.00
77572;BME280;67214;47.454;18.966;2024-02-26T07:15:37;99321.99;;;9.69;100.00
77572;BME280;67214;47.454;18.966;2024-02-26T07:18:04;99316.48;;;9.76;100.00
77572;BME280;67214;47.454;18.966;2024-02-26T07:20:31;99317.47;;;9.85;100.00
77572;BME280;67214;47.454;18.966;2024-02-26T07:22:58;99318.92;;;9.93;100.00
77572;BME280;67214;47.454;18.966;2024-02-26T07:25:25;99317.86;;;9.99;100.00
77572;BME280;67214;47.454;18.966;2024-02-26T07:27:52;99330.92;;;10.06;100.00
77572;BME280;67214;47.454;18.966;2024-02-26T07:30:18;99332.73;;;10.15;100.00
77572;BME280;67214;47.454;18.966;2024-02-26T07:32:45;99330.77;;;10.27;100.00
77572;BME280;67214;47.454;18.966;2024-02-26T07:35:12;99344.55;;;10.40;100.00
77572;BME280;67214;47.454;18.966;2024-02-26T07:37:39;99336.01;;;10.56;100.00
77572;BME280;67214;47.454;18.966;2024-02-26T07:40:06;99343.66;;;10.68;100.00
77572;BME280;67214;47.454;18.966;2024-02-26T07:42:33;99339.41;;;10.85;100.00
77572;BME280;67214;47.454;18.966;2024-02-26T07:45:00;99333.32;;;10.89;100.00
77572;BME280;67214;47.454;18.966;2024-02-26T07:47:27;99342.17;;;10.93;100.00
77572;BME280;67214;47.454;18.966;2024-02-26T07:49:55;99345.37;;;10.97;99.85
77572;BME280;67214;47.454;18.966;2024-02-26T07:52:22;99329.13;;;10.96;99.71
77572;BME280;67214;47.454;18.966;2024-02-26T07:54:48;99334.75;;;10.97;100.00
77572;BME280;67214;47.454;18.966;2024-02-26T07:57:15;99336.76;;;10.85;100.00
77572;BME280;67214;47.454;18.966;2024-02-26T07:59:42;99333.11;;;10.96;99.59
77572;BME280;67214;47.454;18.966;2024-02-26T08:02:10;99345.05;;;10.96;99.37
77572;BME280;67214;47.454;18.966;2024-02-26T08:04:37;99338.78;;;11.01;99.16
77572;BME280;67214;47.454;18.966;2024-02-26T08:07:04;99345.09;;;11.13;99.52
77572;BME280;67214;47.454;18.966;2024-02-26T08:09:30;99339.79;;;11.27;99.39
77572;BME280;67214;47.454;18.966;2024-02-26T08:11:57;99349.17;;;11.35;98.25
77572;BME280;67214;47.454;18.966;2024-02-26T08:14:24;99350.51;;;11.35;96.63
77572;BME280;67214;47.454;18.966;2024-02-26T08:16:50;99354.67;;;11.38;96.41
77572;BME280;67214;47.454;18.966;2024-02-26T08:19:17;99351.44;;;11.44;95.87
77572;BME280;67214;47.454;18.966;2024-02-26T08:21:44;99352.11;;;11.46;95.33
77572;BME280;67214;47.454;18.966;2024-02-26T08:24:11;99358.52;;;11.39;95.20
77572;BME280;67214;47.454;18.966;2024-02-26T08:26:37;99358.56;;;11.43;95.61
77572;BME280;67214;47.454;18.966;2024-02-26T08:29:04;99351.31;;;11.49;95.75
77572;BME280;67214;47.454;18.966;2024-02-26T08:31:31;99349.27;;;11.57;95.76
77572;BME280;67214;47.454;18.966;2024-02-26T08:33:57;99350.29;;;11.60;96.23
77572;BME280;67214;47.454;18.966;2024-02-26T08:36:25;99346.80;;;11.59;96.11
77572;BME280;67214;47.454;18.966;2024-02-26T08:38:52;99343.08;;;11.52;95.39
77572;BME280;67214;47.454;18.966;2024-02-26T08:41:18;99341.39;;;11.51;95.78
77572;BME280;67214;47.454;18.966;2024-02-26T08:43:45;99338.78;;;11.42;95.70
77572;BME280;67214;47.454;18.966;2024-02-26T08:46:12;99340.61;;;11.41;94.96
77572;BME280;67214;47.454;18.966;2024-02-26T08:48:39;99347.45;;;11.44;94.43
77572;BME280;67214;47.454;18.966;2024-02-26T08:51:06;99351.22;;;11.41;94.41
77572;BME280;67214;47.454;18.966;2024-02-26T08:53:33;99347.45;;;11.30;95.77
77572;BME280;67214;47.454;18.966;2024-02-26T08:56:00;99355.77;;;11.31;96.45
77572;BME280;67214;47.454;18.966;2024-02-26T08:58:27;99348.34;;;11.35;96.50
77572;BME280;67214;47.454;18.966;2024-02-26T09:00:54;99350.86;;;11.36;96.88
77572;BME280;67214;47.454;18.966;2024-02-26T09:03:21;99352.81;;;11.34;96.70
77572;BME280;67214;47.454;18.966;2024-02-26T09:05:48;99352.41;;;11.29;96.67
77572;BME280;67214;47.454;18.966;2024-02-26T09:08:15;99360.05;;;11.28;96.94
77572;BME280;67214;47.454;18.966;2024-02-26T09:10:42;99369.17;;;11.30;97.10
77572;BME280;67214;47.454;18.966;2024-02-26T09:13:09;99361.61;;;11.35;97.47
77572;BME280;67214;47.454;18.966;2024-02-26T09:15:35;99363.59;;;11.33;96.73
77572;BME280;67214;47.454;18.966;2024-02-26T09:18:02;99357.81;;;11.37;96.78
77572;BME280;67214;47.454;18.966;2024-02-26T09:20:29;99360.47;;;11.37;96.63
77572;BME280;67214;47.454;18.966;2024-02-26T09:22:56;99359.14;;;11.37;97.29
77572;BME280;67214;47.454;18.966;2024-02-26T09:25:23;99358.92;;;11.44;97.69
77572;BME280;67214;47.454;18.966;2024-02-26T09:27:49;99374.72;;;11.50;97.83
77572;BME280;67214;47.454;18.966;2024-02-26T09:30:16;99367.64;;;11.54;97.21
77572;BME280;67214;47.454;18.966;2024-02-26T09:32:45;99377.96;;;11.57;97.28
77572;BME280;67214;47.454;18.966;2024-02-26T09:35:11;99368.87;;;11.60;96.89
77572;BME280;67214;47.454;18.966;2024-02-26T09:37:38;99375.26;;;11.67;96.26
77572;BME280;67214;47.454;18.966;2024-02-26T09:40:05;99374.46;;;11.71;95.26
77572;BME280;67214;47.454;18.966;2024-02-26T09:42:32;99375.47;;;11.70;94.99
77572;BME280;67214;47.454;18.966;2024-02-26T09:45:03;99375.47;;;11.70;94.44
77572;BME280;67214;47.454;18.966;2024-02-26T09:47:30;99375.86;;;11.75;94.59
77572;BME280;67214;47.454;18.966;2024-02-26T09:49:58;99373.91;;;11.77;94.82
77572;BME280;67214;47.454;18.966;2024-02-26T09:52:28;99375.32;;;11.85;95.23
77572;BME280;67214;47.454;18.966;2024-02-26T09:54:55;99376.07;;;11.95;94.83
77572;BME280;67214;47.454;18.966;2024-02-26T09:57:21;99383.96;;;11.87;93.71
77572;BME280;67214;47.454;18.966;2024-02-26T09:59:51;99385.02;;;11.90;93.07
77572;BME280;67214;47.454;18.966;2024-02-26T10:02:18;99389.00;;;11.90;92.40
77572;BME280;67214;47.454;18.966;2024-02-26T10:04:47;99382.00;;;11.89;93.33
77572;BME280;67214;47.454;18.966;2024-02-26T10:07:16;99381.30;;;11.87;92.72
77572;BME280;67214;47.454;18.966;2024-02-26T10:09:42;99387.84;;;11.92;93.39
77572;BME280;67214;47.454;18.966;2024-02-26T10:12:10;99377.65;;;12.01;92.63
77572;BME280;67214;47.454;18.966;2024-02-26T10:14:37;99379.37;;;12.10;92.18
77572;BME280;67214;47.454;18.966;2024-02-26T10:17:06;99382.27;;;12.17;92.05
77572;BME280;67214;47.454;18.966;2024-02-26T10:19:32;99384.61;;;12.38;91.07
77572;BME280;67214;47.454;18.966;2024-02-26T10:22:00;99378.47;;;12.59;89.33
77572;BME280;67214;47.454;18.966;2024-02-26T10:24:27;99368.45;;;12.79;88.97
77572;BME280;67214;47.454;18.966;2024-02-26T10:26:54;99363.64;;;13.08;88.01
77572;BME280;67214;47.454;18.966;2024-02-26T10:29:21;99361.14;;;13.40;84.05
77572;BME280;67214;47.454;18.966;2024-02-26T10:31:48;99360.92;;;13.84;84.80
77572;BME280;67214;47.454;18.966;2024-02-26T10:34:15;99362.64;;;14.17;81.59
77572;BME280;67214;47.454;18.966;2024-02-26T10:36:42;99359.81;;;14.51;79.87
77572;BME280;67214;47.454;18.966;2024-02-26T10:39:09;99357.80;;;14.77;77.64
77572;BME280;67214;47.454;18.966;2024-02-26T10:41:37;99356.07;;;14.97;79.20
77572;BME280;67214;47.454;18.966;2024-02-26T10:44:04;99352.72;;;15.07;76.93
77572;BME280;67214;47.454;18.966;2024-02-26T10:46:31;99354.39;;;15.08;75.52
77572;BME280;67214;47.454;18.966;2024-02-26T10:48:58;99345.87;;;15.04;76.61
77572;BME280;67214;47.454;18.966;2024-02-26T10:51:26;99342.67;;;15.13;73.23
77572;BME280;67214;47.454;18.966;2024-02-26T10:53:59;99327.75;;;15.30;74.04
77572;BME280;67214;47.454;18.966;2024-02-26T10:56:26;99333.11;;;15.26;72.12
77572;BME280;67214;47.454;18.966;2024-02-26T10:58:56;99337.94;;;15.31;73.18
77572;BME280;67214;47.454;18.966;2024-02-26T11:01:24;99339.23;;;15.39;73.53
77572;BME280;67214;47.454;18.966;2024-02-26T11:03:52;99332.45;;;15.20;72.47
77572;BME280;67214;47.454;18.966;2024-02-26T11:06:19;99330.31;;;15.20;72.46
77572;BME280;67214;47.454;18.966;2024-02-26T11:08:49;99338.64;;;15.17;72.22
77572;BME280;67214;47.454;18.966;2024-02-26T11:11:21;99332.40;;;15.32;70.71
77572;BME280;67214;47.454;18.966;2024-02-26T11:13:46;99332.03;;;15.52;71.63
77572;BME280;67214;47.454;18.966;2024-02-26T11:16:21;99341.05;;;15.51;67.67
77572;BME280;67214;47.454;18.966;2024-02-26T11:18:46;99342.19;;;15.56;68.95
77572;BME280;67214;47.454;18.966;2024-02-26T11:21:16;99337.08;;;15.34;68.33
77572;BME280;67214;47.454;18.966;2024-02-26T11:23:47;99335.70;;;15.43;69.31
77572;BME280;67214;47.454;18.966;2024-02-26T11:26:15;99351.41;;;15.80;67.33
77572;BME280;67214;47.454;18.966;2024-02-26T11:28:43;99339.44;;;15.95;66.60
77572;BME280;67214;47.454;18.966;2024-02-26T11:31:10;99336.50;;;16.09;66.85
77572;BME280;67214;47.454;18.966;2024-02-26T11:33:38;99343.86;;;16.07;66.25
77572;BME280;67214;47.454;18.966;2024-02-26T11:36:09;99334.88;;;16.22;65.86
77572;BME280;67214;47.454;18.966;2024-02-26T11:38:36;99331.30;;;16.11;66.54
77572;BME280;67214;47.454;18.966;2024-02-26T11:41:06;99343.23;;;16.23;66.78
77572;BME280;67214;47.454;18.966;2024-02-26T11:43:53;99343.00;;;16.10;64.52
77572;BME280;67214;47.454;18.966;2024-02-26T11:46:29;99342.61;;;15.95;66.97
77572;BME280;67214;47.454;18.966;2024-02-26T11:49:02;99345.53;;;15.85;66.05
77572;BME280;67214;47.454;18.966;2024-02-26T11:51:26;99348.23;;;15.81;68.06
77572;BME280;67214;47.454;18.966;2024-02-26T11:53:53;99349.38;;;15.83;64.33
77572;BME280;67214;47.454;18.966;2024-02-26T11:56:22;99348.23;;;15.81;65.57
77572;BME280;67214;47.454;18.966;2024-02-26T11:58:53;99346.14;;;16.18;63.85
77572;BME280;67214;47.454;18.966;2024-02-26T12:01:35;99337.22;;;16.25;65.35
77572;BME280;67214;47.454;18.966;2024-02-26T12:04:04;99351.59;;;16.24;64.35
77572;BME280;67214;47.454;18.966;2024-02-26T12:06:30;99336.48;;;16.32;64.97
77572;BME280;67214;47.454;18.966;2024-02-26T12:08:57;99340.26;;;16.18;63.87
77572;BME280;67214;47.454;18.966;2024-02-26T12:11:26;99336.78;;;16.37;63.90
77572;BME280;67214;47.454;18.966;2024-02-26T12:13:52;99338.10;;;16.55;62.71
77572;BME280;67214;47.454;18.966;2024-02-26T12:16:38;99337.78;;;16.36;63.11
77572;BME280;67214;47.454;18.966;2024-02-26T12:19:05;99340.79;;;16.18;64.01
77572;BME280;67214;47.454;18.966;2024-02-26T12:21:36;99331.25;;;15.97;65.31
77572;BME280;67214;47.454;18.966;2024-02-26T12:24:15;99334.50;;;15.84;65.69
77572;BME280;67214;47.454;18.966;2024-02-26T12:26:42;99332.58;;;15.70;66.55
77572;BME280;67214;47.454;18.966;2024-02-26T12:29:08;99329.41;;;15.70;66.97
77572;BME280;67214;47.454;18.966;2024-02-26T12:31:36;99326.59;;;15.68;67.42
77572;BME280;67214;47.454;18.966;2024-02-26T12:34:04;99336.25;;;15.73;67.21
77572;BME280;67214;47.454;18.966;2024-02-26T12:36:31;99327.20;;;15.74;66.36
77572;BME280;67214;47.454;18.966;2024-02-26T12:38:58;99323.80;;;16.07;66.22
77572;BME280;67214;47.454;18.966;2024-02-26T12:41:26;99327.28;;;16.34;64.14
77572;BME280;67214;47.454;18.966;2024-02-26T12:43:53;99323.79;;;16.67;62.93
77572;BME280;67214;47.454;18.966;2024-02-26T12:46:20;99318.75;;;17.01;62.24
77572;BME280;67214;47.454;18.966;2024-02-26T12:48:47;99309.58;;;17.25;60.25
77572;BME280;67214;47.454;18.966;2024-02-26T12:51:14;99313.89;;;17.41;59.82